Time;durP1;ratioP1;P1;durP2;ratioP2;P2;SDS_P1;SDS_P2;PMS_P1;PMS_P2;Temp;Humidity;BMP_temperature;BMP_pressure;BME280_temperature;BME280_humidity;BME280_pressure;Samples;Min_cycle;Max_cycle;Signal;HPM_P1;HPM_P2
2022/07/03 00:02:03;;;;;;;2.08;1.48;;;17.60;99.90;;;;;;5016986;28;20479;-73
2022/07/03 00:04:29;;;;;;;3.58;1.70;;;17.60;99.90;;;;;;5000920;28;20143;-74
2022/07/03 00:06:54;;;;;;;3.33;1.45;;;17.50;99.90;;;;;;4984409;28;20126;-74
2022/07/03 00:09:21;;;;;;;2.75;1.48;;;17.50;99.90;;;;;;5034460;28;20107;-73
2022/07/03 00:11:46;;;;;;;1.85;1.30;;;17.50;99.90;;;;;;5000827;28;20107;-74
2022/07/03 00:14:12;;;;;;;1.48;1.35;;;17.50;99.90;;;;;;5000367;28;20049;-73
2022/07/03 00:16:38;;;;;;;2.10;1.38;;;17.50;99.90;;;;;;5016661;28;20045;-74
2022/07/03 00:19:04;;;;;;;2.63;1.63;;;17.50;99.90;;;;;;5000423;28;20045;-73
2022/07/03 00:21:37;;;;;;;2.45;1.70;;;17.50;99.90;;;;;;5016659;28;20045;-73
2022/07/03 00:24:08;;;;;;;2.42;1.70;;;17.40;99.90;;;;;;5016619;28;20088;-73
2022/07/03 00:26:38;;;;;;;2.08;1.42;;;17.40;99.90;;;;;;5016890;28;20523;-73
2022/07/03 00:29:06;;;;;;;3.13;1.55;;;17.40;99.90;;;;;;5016561;28;20072;-74
2022/07/03 00:31:32;;;;;;;1.45;1.20;;;17.30;99.90;;;;;;4999844;28;20044;-73
2022/07/03 00:34:01;;;;;;;2.75;1.75;;;17.30;99.90;;;;;;5016381;28;20075;-73
2022/07/03 00:36:33;;;;;;;2.35;1.55;;;17.20;99.90;;;;;;5000062;28;20076;-74
2022/07/03 00:38:58;;;;;;;6.88;1.50;;;17.20;99.90;;;;;;5016300;28;20037;-74
2022/07/03 00:41:30;;;;;;;6.18;1.50;;;17.20;99.90;;;;;;4999966;28;20472;-74
2022/07/03 00:43:56;;;;;;;2.90;1.27;;;17.30;99.90;;;;;;5016398;28;20037;-74
2022/07/03 00:46:24;;;;;;;3.85;1.50;;;17.20;99.90;;;;;;5016388;28;20493;-73
2022/07/03 00:48:52;;;;;;;1.42;1.30;;;17.20;99.90;;;;;;5016064;28;20081;-74
2022/07/03 00:51:26;;;;;;;1.10;1.00;;;17.20;99.90;;;;;;5033768;28;20042;-73
2022/07/03 00:53:55;;;;;;;2.95;1.10;;;17.10;99.90;;;;;;5015984;28;20049;-73
2022/07/03 00:56:26;;;;;;;1.58;1.30;;;17.10;99.90;;;;;;5016000;28;20033;-73
2022/07/03 00:58:55;;;;;;;2.03;1.05;;;17.10;99.90;;;;;;5015931;28;20044;-73
2022/07/03 01:01:24;;;;;;;2.38;1.50;;;17.10;99.90;;;;;;5016176;28;20485;-74
2022/07/03 01:04:10;;;;;;;1.77;1.30;;;17.10;99.90;;;;;;5015830;28;20076;-74
2022/07/03 01:06:58;;;;;;;1.23;1.13;;;17.10;99.90;;;;;;5016076;28;20033;-73
2022/07/03 01:09:37;;;;;;;2.08;1.38;;;17.00;99.90;;;;;;5015813;28;20049;-73
2022/07/03 01:12:09;;;;;;;2.55;1.60;;;17.00;99.90;;;;;;5015751;28;20064;-74
2022/07/03 01:15:04;;;;;;;2.33;1.13;;;16.90;99.90;;;;;;5015710;28;20045;-73
2022/07/03 01:17:58;;;;;;;2.17;1.23;;;16.90;99.90;;;;;;5015660;28;20049;-73
2022/07/03 01:20:28;;;;;;;2.22;1.33;;;16.80;99.90;;;;;;4999253;28;20110;-74
2022/07/03 01:22:59;;;;;;;2.97;1.67;;;16.70;99.90;;;;;;5015706;28;20517;-74
2022/07/03 01:25:29;;;;;;;2.30;1.27;;;16.60;99.90;;;;;;5015854;28;20369;-74
2022/07/03 01:28:17;;;;;;;4.00;1.50;;;16.70;99.90;;;;;;5015738;28;20107;-73
2022/07/03 01:30:50;;;;;;;2.47;1.63;;;16.60;99.90;;;;;;5015429;28;20088;-73
2022/07/03 01:33:18;;;;;;;1.67;1.23;;;16.60;99.90;;;;;;4999012;28;20128;-74
2022/07/03 01:36:06;;;;;;;3.58;1.35;;;16.50;99.90;;;;;;4999283;28;20389;-74
2022/07/03 01:38:40;;;;;;;2.20;1.42;;;16.50;99.90;;;;;;4998926;28;20049;-73
2022/07/03 01:41:08;;;;;;;1.63;1.33;;;16.50;99.90;;;;;;5015545;28;20068;-74
2022/07/03 01:43:39;;;;;;;1.33;1.23;;;16.50;99.90;;;;;;5014344;28;20072;-74
2022/07/03 01:46:05;;;;;;;3.35;1.50;;;16.50;99.90;;;;;;5015292;28;20095;-73
2022/07/03 01:48:33;;;;;;;2.50;1.40;;;16.40;99.90;;;;;;4998830;28;20045;-74
2022/07/03 01:51:00;;;;;;;2.10;1.50;;;16.50;99.90;;;;;;5015391;28;20492;-74
2022/07/03 01:53:28;;;;;;;2.78;1.45;;;16.40;99.90;;;;;;5015318;28;20638;-73
2022/07/03 01:55:59;;;;;;;3.90;1.80;;;16.40;99.90;;;;;;4999053;28;20455;-74
2022/07/03 01:58:25;;;;;;;3.38;1.75;;;16.40;99.90;;;;;;5015116;28;20044;-73
2022/07/03 02:01:01;;;;;;;2.25;1.75;;;16.30;99.90;;;;;;5015084;28;20164;-73
2022/07/03 02:03:30;;;;;;;3.25;1.88;;;16.30;99.90;;;;;;5015360;28;20156;-73
2022/07/03 02:06:29;;;;;;;2.10;1.52;;;16.30;99.90;;;;;;5015332;28;20492;-73
2022/07/03 02:09:03;;;;;;;2.15;1.70;;;16.20;99.90;;;;;;5014808;28;20062;-73
2022/07/03 02:11:34;;;;;;;1.52;1.33;;;16.10;99.90;;;;;;5015212;28;20520;-73
2022/07/03 02:14:17;;;;;;;1.88;1.70;;;16.10;99.90;;;;;;4998702;28;20128;-73
2022/07/03 02:17:19;;;;;;;3.28;1.70;;;16.00;99.90;;;;;;5032712;28;20548;-73
2022/07/03 02:19:59;;;;;;;2.88;1.70;;;16.00;99.90;;;;;;5015017;28;20041;-73
2022/07/03 02:22:32;;;;;;;1.42;1.23;;;15.90;99.90;;;;;;5014895;28;20052;-73
2022/07/03 02:25:07;;;;;;;3.38;1.55;;;15.90;99.90;;;;;;5015114;28;20038;-73
2022/07/03 02:27:43;;;;;;;5.93;2.30;;;15.80;99.90;;;;;;5014842;28;20041;-73
2022/07/03 02:30:10;;;;;;;2.78;1.90;;;15.80;99.90;;;;;;5015162;28;20049;-73
2022/07/03 02:32:58;;;;;;;2.92;2.03;;;15.80;99.90;;;;;;5015000;28;20037;-74
2022/07/03 02:35:34;;;;;;;4.10;2.40;;;15.80;99.90;;;;;;5014201;28;20084;-73
2022/07/03 02:38:18;;;;;;;2.90;2.13;;;15.80;99.90;;;;;;4998511;28;20038;-73
2022/07/03 02:40:51;;;;;;;2.70;1.98;;;15.70;99.90;;;;;;4998694;28;20122;-73
2022/07/03 02:43:57;;;;;;;3.70;2.40;;;15.80;99.90;;;;;;5014681;28;20072;-73
2022/07/03 02:49:19;;;;;;;2.35;1.88;;;15.80;99.90;;;;;;5014635;28;20041;-73
2022/07/03 02:52:14;;;;;;;2.13;1.70;;;15.70;99.90;;;;;;5032318;28;20056;-74
2022/07/03 02:54:46;;;;;;;3.72;2.28;;;15.70;99.90;;;;;;4999090;28;20424;-74
2022/07/03 02:57:22;;;;;;;2.97;2.20;;;15.70;99.90;;;;;;5001956;28;20037;-73
2022/07/03 03:00:02;;;;;;;2.85;1.83;;;15.60;99.90;;;;;;5001862;28;20045;-73
2022/07/03 03:02:46;;;;;;;3.72;1.80;;;15.60;99.90;;;;;;5018187;28;20099;-73
2022/07/03 03:05:27;;;;;;;3.83;2.10;;;15.60;99.90;;;;;;5001697;28;20473;-74
2022/07/03 03:08:10;;;;;;;2.60;1.83;;;15.60;99.90;;;;;;5018251;28;20489;-73
2022/07/03 03:10:37;;;;;;;3.10;1.80;;;15.60;99.90;;;;;;5017798;28;20053;-73
2022/07/03 03:13:05;;;;;;;2.42;2.03;;;15.50;99.90;;;;;;5017910;28;20120;-73
2022/07/03 03:15:33;;;;;;;2.20;1.92;;;15.50;99.90;;;;;;5017894;28;20450;-73
2022/07/03 03:18:07;;;;;;;2.03;1.63;;;15.50;99.90;;;;;;5001505;28;20088;-73
2022/07/03 03:20:36;;;;;;;4.32;2.38;;;15.40;99.90;;;;;;5018089;28;20041;-73
2022/07/03 03:23:07;;;;;;;2.95;2.13;;;15.40;99.90;;;;;;5001461;28;20033;-73
2022/07/03 03:25:33;;;;;;;1.75;1.63;;;15.40;99.90;;;;;;5017758;28;20067;-73
2022/07/03 03:27:59;;;;;;;4.57;2.20;;;15.40;99.90;;;;;;5017621;28;20128;-73
2022/07/03 03:30:25;;;;;;;4.47;2.08;;;15.40;99.90;;;;;;5017917;28;20497;-73
2022/07/03 03:32:51;;;;;;;3.47;2.22;;;15.40;99.90;;;;;;5017503;28;20042;-75
2022/07/03 03:35:17;;;;;;;2.58;2.00;;;15.40;99.90;;;;;;5017571;28;20048;-73
2022/07/03 03:37:44;;;;;;;1.92;1.60;;;15.50;99.90;;;;;;5017481;28;20385;-73
2022/07/03 03:40:11;;;;;;;3.30;1.73;;;15.50;99.90;;;;;;5017418;28;20045;-73
2022/07/03 03:42:37;;;;;;;4.95;1.67;;;15.40;99.90;;;;;;5035382;28;20079;-74
2022/07/03 03:45:03;;;;;;;2.60;2.10;;;15.40;99.90;;;;;;5034987;28;20484;-73
2022/07/03 03:47:29;;;;;;;2.10;1.80;;;15.40;99.90;;;;;;5017508;28;20403;-73
2022/07/03 03:49:55;;;;;;;1.75;1.40;;;15.40;99.90;;;;;;5017328;28;20041;-73
2022/07/03 03:52:21;;;;;;;2.67;1.85;;;15.40;99.90;;;;;;5017166;28;20041;-73
2022/07/03 03:54:46;;;;;;;1.92;1.50;;;15.50;99.90;;;;;;5000641;28;20132;-73
2022/07/03 03:57:20;;;;;;;4.03;2.00;;;15.40;99.90;;;;;;5017208;28;20180;-73
2022/07/03 03:59:47;;;;;;;3.38;2.08;;;15.40;99.90;;;;;;5017047;28;20170;-73
2022/07/03 04:02:13;;;;;;;2.28;1.92;;;15.40;99.90;;;;;;5000673;28;20042;-73
2022/07/03 04:04:39;;;;;;;2.40;1.98;;;15.20;99.90;;;;;;5017161;28;20099;-73
2022/07/03 04:07:05;;;;;;;2.80;1.80;;;15.50;99.90;;;;;;5015993;28;20045;-74
2022/07/03 04:09:30;;;;;;;3.00;1.70;;;15.50;99.90;;;;;;5000414;28;20520;-73
2022/07/03 04:11:57;;;;;;;2.85;1.92;;;15.50;99.90;;;;;;5016813;28;20398;-73
2022/07/03 04:14:23;;;;;;;2.78;1.73;;;15.50;99.90;;;;;;5016667;28;20041;-73
2022/07/03 04:16:48;;;;;;;2.88;1.77;;;15.50;99.90;;;;;;5016713;28;20459;-73
2022/07/03 04:19:14;;;;;;;2.28;1.75;;;15.50;99.90;;;;;;5000444;28;20042;-73
2022/07/03 04:21:39;;;;;;;2.42;2.03;;;15.60;99.90;;;;;;5000317;28;20038;-73
2022/07/03 04:24:05;;;;;;;2.60;1.98;;;15.60;99.90;;;;;;5016614;28;20085;-73
2022/07/03 04:26:31;;;;;;;3.22;2.00;;;15.60;99.90;;;;;;5016756;28;20041;-73
2022/07/03 04:28:57;;;;;;;2.28;1.80;;;15.60;99.90;;;;;;5016733;28;20132;-73
2022/07/03 04:31:22;;;;;;;2.33;1.60;;;15.60;99.90;;;;;;5016796;28;20053;-73
2022/07/03 04:33:48;;;;;;;2.58;1.80;;;15.70;99.90;;;;;;5016253;28;20044;-73
2022/07/03 04:36:15;;;;;;;3.08;2.08;;;15.70;99.90;;;;;;5016562;28;20507;-73
2022/07/03 04:38:41;;;;;;;2.08;1.80;;;15.70;99.90;;;;;;5016300;28;20051;-73
2022/07/03 04:41:06;;;;;;;3.00;2.20;;;15.70;99.90;;;;;;4983723;28;20504;-73
2022/07/03 04:43:32;;;;;;;3.83;1.90;;;15.70;99.90;;;;;;5016239;28;20524;-73
2022/07/03 04:45:58;;;;;;;3.65;2.17;;;15.80;99.90;;;;;;5016385;28;20048;-73
2022/07/03 04:48:23;;;;;;;3.28;1.98;;;15.80;99.90;;;;;;4999902;28;20041;-73
2022/07/03 04:50:49;;;;;;;2.10;1.83;;;15.60;99.90;;;;;;5016142;28;20551;-73
2022/07/03 04:53:15;;;;;;;3.50;2.05;;;15.70;99.90;;;;;;5016290;28;20041;-73
2022/07/03 04:55:40;;;;;;;2.10;1.80;;;15.80;99.90;;;;;;4999695;28;20095;-73
2022/07/03 04:58:06;;;;;;;2.35;1.73;;;15.70;99.90;;;;;;5016045;28;20045;-73
2022/07/03 05:00:32;;;;;;;2.45;1.92;;;15.70;99.90;;;;;;5015885;28;20077;-73
2022/07/03 05:02:57;;;;;;;2.55;2.25;;;15.70;99.90;;;;;;5016212;28;20480;-73
2022/07/03 05:05:23;;;;;;;3.13;1.75;;;15.80;99.90;;;;;;4999525;28;20045;-73
2022/07/03 05:07:49;;;;;;;1.65;1.33;;;15.70;99.90;;;;;;4999535;28;20048;-73
2022/07/03 05:10:15;;;;;;;2.67;2.05;;;15.80;99.90;;;;;;4983300;28;20061;-73
2022/07/03 05:12:40;;;;;;;1.80;1.58;;;15.80;99.90;;;;;;5033755;28;20037;-73
2022/07/03 05:15:07;;;;;;;3.08;2.00;;;15.80;99.90;;;;;;5015698;28;20044;-73
2022/07/03 05:17:33;;;;;;;2.22;2.00;;;15.80;99.90;;;;;;5015337;28;20041;-72
2022/07/03 05:22:44;;;;;;;3.22;1.92;;;16.00;99.90;;;;;;5015510;28;20049;-73
2022/07/03 05:25:10;;;;;;;1.98;1.60;;;16.10;99.90;;;;;;4999257;28;20037;-72
2022/07/03 05:27:37;;;;;;;4.85;1.80;;;16.20;99.90;;;;;;5015870;28;20045;-72
2022/07/03 05:30:03;;;;;;;2.90;1.85;;;16.40;99.90;;;;;;5033569;28;20037;-73
2022/07/03 05:32:28;;;;;;;3.05;2.00;;;16.60;99.90;;;;;;5015709;28;20331;-73
2022/07/03 05:34:54;;;;;;;2.17;1.45;;;16.80;99.90;;;;;;5015418;28;20130;-73
2022/07/03 05:37:20;;;;;;;2.63;1.40;;;16.90;99.90;;;;;;5015460;28;20048;-73
2022/07/03 05:39:45;;;;;;;2.47;1.60;;;17.00;99.90;;;;;;5015368;28;20596;-73
2022/07/03 05:42:11;;;;;;;1.90;1.60;;;17.20;99.90;;;;;;5015530;28;20436;-73
2022/07/03 05:44:37;;;;;;;2.08;1.52;;;17.40;99.90;;;;;;5015301;28;20072;-73
2022/07/03 05:47:02;;;;;;;4.68;1.33;;;17.60;99.90;;;;;;5015468;28;20484;-73
2022/07/03 05:49:28;;;;;;;2.17;1.27;;;17.70;99.90;;;;;;5015465;28;20041;-73
2022/07/03 05:51:54;;;;;;;1.95;1.20;;;17.90;99.90;;;;;;5015509;28;20141;-74
2022/07/03 05:54:19;;;;;;;2.75;0.82;;;18.10;99.90;;;;;;4998833;28;20128;-73
2022/07/03 05:56:46;;;;;;;1.25;0.90;;;18.30;99.90;;;;;;4998814;28;20033;-73
2022/07/03 05:59:12;;;;;;;2.25;1.23;;;18.50;99.90;;;;;;5015409;28;20416;-73
2022/07/03 06:01:37;;;;;;;1.75;1.10;;;18.70;99.90;;;;;;4998787;28;20038;-72
2022/07/03 06:04:04;;;;;;;0.95;0.75;;;18.90;99.90;;;;;;4998832;28;20068;-80
2022/07/03 06:06:29;;;;;;;0.90;0.80;;;19.10;99.90;;;;;;5015108;28;20049;-82
2022/07/03 06:08:55;;;;;;;1.40;0.93;;;19.30;99.90;;;;;;4984260;28;20080;-79
2022/07/03 06:11:21;;;;;;;1.13;0.82;;;19.60;99.90;;;;;;5015390;28;20046;-75
2022/07/03 06:13:47;;;;;;;1.00;0.70;;;19.80;99.90;;;;;;4998783;28;20128;-79
2022/07/03 06:16:12;;;;;;;1.25;0.90;;;19.80;99.90;;;;;;4982560;28;20044;-82
2022/07/03 06:18:38;;;;;;;1.35;0.70;;;19.90;99.90;;;;;;4982376;28;20580;-76
2022/07/03 06:21:04;;;;;;;0.68;0.68;;;19.90;99.90;;;;;;5015162;28;20038;-76
2022/07/03 06:23:29;;;;;;;1.08;0.93;;;19.80;99.90;;;;;;4998473;28;20084;-76
2022/07/03 06:25:55;;;;;;;0.77;0.70;;;19.70;99.90;;;;;;4998770;28;20443;-76
2022/07/03 06:28:21;;;;;;;3.95;0.95;;;19.60;99.90;;;;;;4998716;28;20037;-77
2022/07/03 06:30:46;;;;;;;1.08;0.75;;;19.70;99.90;;;;;;5001073;28;20179;-78
2022/07/03 06:33:13;;;;;;;0.95;0.77;;;19.80;99.90;;;;;;5002127;28;20132;-78
2022/07/03 06:35:38;;;;;;;0.70;0.70;;;20.00;99.90;;;;;;5018507;28;20523;-78
2022/07/03 06:38:04;;;;;;;1.25;0.90;;;20.10;99.90;;;;;;4985992;28;20069;-78
2022/07/03 06:40:30;;;;;;;0.93;0.70;;;20.20;99.90;;;;;;5018412;28;20405;-78
2022/07/03 06:42:56;;;;;;;1.70;0.80;;;20.40;99.90;;;;;;4986136;28;20081;-78
2022/07/03 06:45:22;;;;;;;0.80;0.60;;;20.60;99.90;;;;;;5001973;28;20151;-78
2022/07/03 06:47:48;;;;;;;0.75;0.68;;;20.70;99.90;;;;;;5001865;28;20505;-78
2022/07/03 06:50:13;;;;;;;0.63;0.60;;;20.90;99.90;;;;;;5002073;28;20091;-78
2022/07/03 06:52:39;;;;;;;1.42;0.80;;;21.20;99.90;;;;;;5002092;28;20049;-79
2022/07/03 06:55:05;;;;;;;2.42;0.60;;;21.30;99.90;;;;;;5002218;28;20048;-78
2022/07/03 06:57:31;;;;;;;1.48;0.70;;;21.10;99.90;;;;;;5018467;28;20084;-78
2022/07/03 06:59:57;;;;;;;0.52;0.50;;;21.00;99.90;;;;;;4985601;28;20073;-78
2022/07/03 07:02:23;;;;;;;1.30;0.68;;;20.90;99.90;;;;;;5002019;28;20034;-78
2022/07/03 07:04:48;;;;;;;0.77;0.60;;;20.80;99.90;;;;;;5001918;28;20144;-78
2022/07/03 07:07:14;;;;;;;1.65;0.98;;;20.70;99.90;;;;;;5018372;28;20135;-79
2022/07/03 07:09:40;;;;;;;1.17;0.70;;;20.50;99.90;;;;;;5001900;28;20060;-79
2022/07/03 07:12:06;;;;;;;0.90;0.70;;;19.90;99.90;;;;;;5002222;28;20041;-81
2022/07/03 07:14:32;;;;;;;2.08;0.90;;;20.20;99.90;;;;;;5018559;28;20088;-81
2022/07/03 07:16:57;;;;;;;2.28;1.02;;;20.20;99.90;;;;;;5002385;28;20515;-83
2022/07/03 07:19:23;;;;;;;1.05;0.73;;;20.40;99.90;;;;;;5018928;28;20041;-81
2022/07/03 07:21:49;;;;;;;1.60;0.65;;;20.50;99.90;;;;;;5004906;28;20408;-81
2022/07/03 07:24:14;;;;;;;1.90;0.68;;;20.70;99.90;;;;;;5018633;28;20041;-82
2022/07/03 07:26:40;;;;;;;2.88;0.77;;;20.70;99.90;;;;;;5002207;28;20155;-82
2022/07/03 07:29:06;;;;;;;4.80;0.88;;;20.70;99.90;;;;;;4985891;28;20081;-85
2022/07/03 07:31:32;;;;;;;1.23;0.85;;;20.60;99.90;;;;;;4985369;28;20516;-79
2022/07/03 07:33:57;;;;;;;0.70;0.70;;;20.70;99.90;;;;;;4985038;28;20046;-79
2022/07/03 07:36:23;;;;;;;1.77;0.80;;;20.80;99.90;;;;;;5017653;28;20042;-81
2022/07/03 07:38:49;;;;;;;1.33;0.90;;;21.00;99.90;;;;;;5001709;28;20033;-85
2022/07/03 07:41:15;;;;;;;0.40;0.40;;;21.00;99.90;;;;;;5017409;28;20041;-74
2022/07/03 07:43:40;;;;;;;2.20;0.50;;;21.00;99.90;;;;;;5017608;28;20048;-74
2022/07/03 07:46:06;;;;;;;0.95;0.65;;;21.00;99.90;;;;;;5035105;28;20041;-74
2022/07/03 07:48:34;;;;;;;1.70;0.70;;;21.20;99.90;;;;;;5017529;28;20141;-74
2022/07/03 07:51:00;;;;;;;0.65;0.60;;;21.40;99.90;;;;;;5017258;28;20073;-74
2022/07/03 07:53:26;;;;;;;1.05;0.88;;;21.50;99.90;;;;;;5017138;28;20045;-74
2022/07/03 07:55:52;;;;;;;3.20;0.80;;;21.40;99.90;;;;;;5017438;28;20041;-74
2022/07/03 07:58:17;;;;;;;0.60;0.60;;;21.50;99.90;;;;;;5017100;28;20041;-73
2022/07/03 08:06:11;;;;;;;0.93;0.60;;;21.90;99.90;;;;;;5017197;28;20532;-74
2022/07/03 08:08:37;;;;;;;0.88;0.60;;;21.80;99.90;;;;;;5000722;28;20045;-73
2022/07/03 08:11:03;;;;;;;0.82;0.50;;;21.90;99.90;;;;;;5000671;28;20107;-74
2022/07/03 08:13:28;;;;;;;0.52;0.47;;;22.10;99.90;;;;;;5000606;28;20041;-74
2022/07/03 08:15:54;;;;;;;1.17;0.55;;;22.10;99.90;;;;;;5000778;28;20046;-74
2022/07/03 08:18:19;;;;;;;3.25;0.57;;;22.10;99.90;;;;;;5000738;28;20048;-74
2022/07/03 08:20:45;;;;;;;2.22;0.80;;;22.20;99.90;;;;;;5016719;28;20120;-74
2022/07/03 08:23:11;;;;;;;1.48;0.70;;;22.40;99.90;;;;;;5000370;28;20045;-74
2022/07/03 08:25:36;;;;;;;2.88;0.60;;;22.30;99.90;;;;;;5016632;28;20052;-74
2022/07/03 08:28:02;;;;;;;2.33;0.60;;;22.40;99.90;;;;;;5000262;28;20046;-74
2022/07/03 08:30:28;;;;;;;0.50;0.50;;;22.40;99.90;;;;;;5016545;28;20056;-74
2022/07/03 08:32:57;;;;;;;0.70;0.55;;;22.50;99.90;;;;;;5016453;28;20049;-77
2022/07/03 08:35:23;;;;;;;1.23;0.70;;;22.70;99.90;;;;;;5000136;28;20053;-74
2022/07/03 08:37:49;;;;;;;0.70;0.60;;;22.50;99.90;;;;;;5016948;28;20393;-75
2022/07/03 08:40:16;;;;;;;1.92;0.55;;;22.40;99.90;;;;;;4999899;28;20037;-82
2022/07/03 08:42:56;;;;;;;2.00;0.85;;;22.40;99.90;;;;;;5016486;28;20045;-74
2022/07/03 08:45:24;;;;;;;1.95;0.77;;;22.50;99.90;;;;;;4999942;28;20077;-75
2022/07/03 08:47:52;;;;;;;1.42;0.80;;;22.40;99.90;;;;;;5016338;28;20069;-75
2022/07/03 08:50:19;;;;;;;0.45;0.43;;;22.10;99.90;;;;;;4999891;28;20033;-75
2022/07/03 08:52:47;;;;;;;1.05;0.68;;;22.10;99.90;;;;;;5015468;28;20040;-74
2022/07/03 08:55:15;;;;;;;1.45;0.70;;;22.10;99.90;;;;;;5016302;28;20041;-74
2022/07/03 08:57:43;;;;;;;0.52;0.47;;;22.20;99.90;;;;;;5015988;28;20107;-74
2022/07/03 09:00:11;;;;;;;2.20;0.82;;;22.10;99.90;;;;;;5015898;28;20041;-74
2022/07/03 09:02:40;;;;;;;0.98;0.80;;;22.10;99.90;;;;;;4999784;28;20057;-74
2022/07/03 09:05:07;;;;;;;0.93;0.63;;;22.30;99.90;;;;;;5015982;28;20045;-74
2022/07/03 09:07:38;;;;;;;1.65;0.70;;;22.20;99.90;;;;;;5015822;28;20126;-75
2022/07/03 09:10:06;;;;;;;3.10;0.75;;;22.20;99.90;;;;;;5015708;28;20042;-74
2022/07/03 09:12:32;;;;;;;1.50;0.90;;;22.30;99.90;;;;;;5033494;28;20037;-75
2022/07/03 09:15:04;;;;;;;0.68;0.60;;;22.30;99.90;;;;;;4999385;28;20049;-74
2022/07/03 09:17:31;;;;;;;1.20;0.73;;;22.20;99.90;;;;;;5015663;28;20044;-74
2022/07/03 09:20:03;;;;;;;1.80;0.90;;;22.00;99.90;;;;;;5015692;28;20047;-74
2022/07/03 09:22:34;;;;;;;1.20;0.70;;;22.30;99.90;;;;;;5015630;28;20045;-74
2022/07/03 09:25:14;;;;;;;1.10;0.52;;;22.40;99.90;;;;;;4999191;28;20052;-74
2022/07/03 09:27:51;;;;;;;1.30;0.40;;;22.40;99.90;;;;;;5015823;28;20095;-81
2022/07/03 09:30:17;;;;;;;0.85;0.50;;;22.50;99.90;;;;;;5015654;28;20056;-82
2022/07/03 09:32:46;;;;;;;0.82;0.50;;;22.70;99.90;;;;;;5016595;28;20042;-82
2022/07/03 09:35:24;;;;;;;0.93;0.50;;;22.70;99.90;;;;;;4999295;28;20481;-76
2022/07/03 09:37:58;;;;;;;0.98;0.60;;;22.90;99.90;;;;;;5015385;28;20184;-77
2022/07/03 09:40:26;;;;;;;3.65;0.57;;;22.60;99.90;;;;;;4999044;28;20080;-76
2022/07/03 09:43:06;;;;;;;2.05;0.77;;;22.60;99.90;;;;;;5015340;28;20099;-76
2022/07/03 09:45:51;;;;;;;2.17;0.60;;;22.50;99.90;;;;;;4999184;28;20517;-75
2022/07/03 09:48:22;;;;;;;3.33;0.50;;;22.60;99.90;;;;;;5015280;28;20279;-76
2022/07/03 09:50:48;;;;;;;1.15;0.43;;;22.80;99.90;;;;;;4998917;28;20057;-76
2022/07/03 09:53:13;;;;;;;0.40;0.40;;;22.80;99.90;;;;;;5015434;28;20042;-76
2022/07/03 09:55:39;;;;;;;0.50;0.40;;;22.80;99.90;;;;;;5015324;28;20102;-75
2022/07/03 09:58:05;;;;;;;0.63;0.50;;;23.10;99.90;;;;;;4998881;28;20041;-77
2022/07/03 10:00:34;;;;;;;0.55;0.50;;;23.10;99.90;;;;;;5015452;28;20073;-77
2022/07/03 10:03:05;;;;;;;1.05;0.30;;;23.20;99.90;;;;;;5015384;28;20498;-77
2022/07/03 10:05:37;;;;;;;0.98;0.55;;;23.20;99.90;;;;;;5001151;28;20124;-77
2022/07/03 10:08:15;;;;;;;0.63;0.40;;;23.20;99.90;;;;;;5019162;28;20041;-77
2022/07/03 10:10:46;;;;;;;0.45;0.30;;;23.60;99.90;;;;;;5019070;28;20497;-77
2022/07/03 10:13:13;;;;;;;2.20;0.60;;;23.60;99.90;;;;;;5018838;28;20053;-77
2022/07/03 10:15:40;;;;;;;1.48;0.38;;;23.50;99.90;;;;;;5003087;28;20436;-78
2022/07/03 10:18:08;;;;;;;0.20;0.20;;;23.40;99.90;;;;;;5002715;28;20136;-78
2022/07/03 10:20:39;;;;;;;0.35;0.20;;;23.30;99.90;;;;;;5019380;28;20397;-78
2022/07/03 10:23:05;;;;;;;0.20;0.20;;;23.20;99.90;;;;;;5019078;28;20042;-83
2022/07/03 10:25:31;;;;;;;1.67;0.30;;;23.10;99.90;;;;;;5018914;28;20484;-81
2022/07/03 10:27:57;;;;;;;0.70;0.40;;;23.00;99.90;;;;;;5019140;28;20052;-81
2022/07/03 10:30:24;;;;;;;0.85;0.30;;;22.90;99.90;;;;;;5002620;28;20052;-79
2022/07/03 10:32:53;;;;;;;0.47;0.25;;;22.90;99.90;;;;;;5002497;28;20164;-76
2022/07/03 10:35:24;;;;;;;0.68;0.30;;;;;;;;;;5018678;28;20120;-79
2022/07/03 10:37:57;;;;;;;1.52;0.47;;;;;;;;;;5002427;28;20048;-81
2022/07/03 10:46:40;;;;;;;0.32;0.30;;;22.90;99.90;;;;;;5012194;28;20049;-79
2022/07/03 10:49:12;;;;;;;0.45;0.30;;;23.10;99.90;;;;;;5018483;28;20056;-80
2022/07/03 10:52:02;;;;;;;0.40;0.40;;;23.20;99.90;;;;;;5018375;28;20041;-78
2022/07/03 10:54:36;;;;;;;0.35;0.30;;;23.30;99.90;;;;;;5018314;28;20045;-78
2022/07/03 10:57:01;;;;;;;0.25;0.20;;;23.40;99.90;;;;;;5018425;28;20099;-80
2022/07/03 10:59:36;;;;;;;1.35;0.30;;;23.40;99.90;;;;;;5002099;28;20492;-80
2022/07/03 11:02:27;;;;;;;0.70;0.57;;;23.30;99.90;;;;;;5002708;28;20065;-78
2022/07/03 11:04:59;;;;;;;0.30;0.30;;;23.10;99.90;;;;;;5018229;28;20049;-80
2022/07/03 11:07:42;;;;;;;3.92;0.30;;;23.40;99.90;;;;;;5018473;28;20041;-79
2022/07/03 11:10:12;;;;;;;0.63;0.30;;;23.70;99.90;;;;;;5001890;28;20531;-79
2022/07/03 11:12:56;;;;;;;0.20;0.20;;;23.80;99.90;;;;;;5001824;28;20041;-79
2022/07/03 11:15:54;;;;;;;0.43;0.30;;;24.10;99.90;;;;;;5017799;28;20493;-79
2022/07/03 11:18:24;;;;;;;0.30;0.30;;;24.00;99.90;;;;;;4943502;28;20045;-79
2022/07/03 11:20:50;;;;;;;1.77;0.20;;;24.20;99.90;;;;;;5017952;28;20401;-81
2022/07/03 11:23:30;;;;;;;0.30;0.30;;;24.50;99.90;;;;;;5001801;28;20045;-78
2022/07/03 11:26:00;;;;;;;0.70;0.20;;;24.20;99.90;;;;;;5017989;28;20045;-79
2022/07/03 11:28:32;;;;;;;1.05;0.30;;;24.00;99.90;;;;;;5001741;28;20045;-82
2022/07/03 11:31:11;;;;;;;1.30;0.30;;;23.80;99.90;;;;;;5017699;28;20049;-80
2022/07/03 11:33:47;;;;;;;0.98;0.30;;;23.70;99.90;;;;;;5018085;28;20060;-80
2022/07/03 11:36:15;;;;;;;0.22;0.22;;;23.50;99.90;;;;;;5001489;28;20038;-80
2022/07/03 11:38:48;;;;;;;0.68;0.40;;;23.50;99.90;;;;;;5001406;28;20128;-80
2022/07/03 11:41:15;;;;;;;0.30;0.20;;;23.50;99.80;;;;;;5017595;28;20048;-79
2022/07/03 11:43:57;;;;;;;0.25;0.25;;;23.40;99.90;;;;;;5001196;28;20065;-79
2022/07/03 11:46:25;;;;;;;0.45;0.30;;;23.60;99.90;;;;;;5001111;28;20202;-79
2022/07/03 11:49:12;;;;;;;0.20;0.20;;;23.50;99.90;;;;;;4985051;28;20076;-79
2022/07/03 11:51:56;;;;;;;1.58;0.47;;;23.60;99.90;;;;;;5000924;28;20124;-79
2022/07/03 11:54:22;;;;;;;0.20;0.20;;;23.30;99.90;;;;;;5017339;28;20564;-80
2022/07/03 11:56:48;;;;;;;0.40;0.30;;;23.40;99.90;;;;;;5017056;28;20132;-79
2022/07/03 11:59:13;;;;;;;4.05;0.40;;;23.60;99.90;;;;;;5017459;28;20041;-81
2022/07/03 12:01:39;;;;;;;0.77;0.40;;;23.80;99.90;;;;;;5001075;28;20034;-81
2022/07/03 12:04:09;;;;;;;1.02;0.50;;;23.90;99.90;;;;;;5000812;28;20052;-81
2022/07/03 12:06:38;;;;;;;0.32;0.20;;;23.80;99.30;;;;;;5000702;28;20073;-81
2022/07/03 12:09:13;;;;;;;0.32;0.30;;;23.70;99.20;;;;;;5017117;28;20065;-81
2022/07/03 12:11:39;;;;;;;0.52;0.40;;;23.80;99.90;;;;;;5016794;28;20049;-81
2022/07/03 12:14:04;;;;;;;1.05;0.52;;;23.90;99.90;;;;;;4968206;28;20041;-80
2022/07/03 12:16:34;;;;;;;0.35;0.35;;;24.30;99.90;;;;;;5016692;28;20044;-81
2022/07/03 12:19:06;;;;;;;0.27;0.27;;;24.10;99.90;;;;;;5000573;28;20116;-81
2022/07/03 12:21:39;;;;;;;0.40;0.30;;;24.00;99.90;;;;;;5016471;28;20059;-80
2022/07/03 12:24:13;;;;;;;0.38;0.38;;;24.10;99.90;;;;;;5000574;28;20076;-81
2022/07/03 12:26:39;;;;;;;0.57;0.30;;;24.30;99.90;;;;;;5016309;28;20042;-79
2022/07/03 12:29:13;;;;;;;1.30;0.50;;;24.30;99.90;;;;;;5015987;28;20079;-79
2022/07/03 12:31:44;;;;;;;1.33;0.50;;;24.20;99.90;;;;;;4968634;28;20487;-77
2022/07/03 12:34:11;;;;;;;1.52;0.63;;;24.10;99.90;;;;;;5000038;28;20037;-77
2022/07/03 12:36:37;;;;;;;2.92;0.50;;;23.90;99.90;;;;;;5000055;28;20084;-78
2022/07/03 12:39:03;;;;;;;0.52;0.43;;;23.80;99.90;;;;;;5016399;28;20504;-78
2022/07/03 12:41:29;;;;;;;1.60;0.60;;;23.70;99.90;;;;;;5016547;28;20389;-77
2022/07/03 12:43:57;;;;;;;1.73;0.80;;;23.60;99.90;;;;;;5000320;28;20042;-78
2022/07/03 12:46:32;;;;;;;1.45;0.60;;;23.70;99.90;;;;;;4999825;28;20083;-77
2022/07/03 12:48:59;;;;;;;0.60;0.40;;;23.90;99.90;;;;;;5016214;28;20128;-76
2022/07/03 12:51:48;;;;;;;3.55;0.55;;;24.00;99.90;;;;;;5016278;28;20045;-78
2022/07/03 12:54:33;;;;;;;1.50;0.50;;;24.10;99.90;;;;;;5016145;28;20099;-79
2022/07/03 13:00:05;;;;;;;0.40;0.40;;;24.00;99.90;;;;;;5015834;28;20052;-78
2022/07/03 13:02:34;;;;;;;2.95;0.40;;;23.90;99.90;;;;;;4999727;28;20172;-80
2022/07/03 13:05:01;;;;;;;0.47;0.38;;;23.70;99.90;;;;;;4999963;28;20481;-80
2022/07/03 13:07:31;;;;;;;0.73;0.38;;;24.00;99.90;;;;;;5016353;28;20048;-79
2022/07/03 13:10:01;;;;;;;0.70;0.40;;;23.60;99.90;;;;;;5017669;28;20424;-78
2022/07/03 13:12:27;;;;;;;;;;;23.80;99.90;;;;;;5016191;28;20045;-79
2022/07/03 13:15:00;;;;;;;0.40;0.40;;;23.60;99.90;;;;;;4999429;28;20281;-80
2022/07/03 13:17:55;;;;;;;0.30;0.20;;;24.10;99.90;;;;;;4968074;28;20049;-80
2022/07/03 13:20:25;;;;;;;1.80;0.40;;;;;;;;;;5015670;28;20052;-80
2022/07/03 13:22:53;;;;;;;0.95;0.50;;;24.40;99.90;;;;;;5015662;28;20171;-80